sensor_id;sensor_type;location;lat;lon;timestamp;P1;durP1;ratioP1;P2;durP2;ratioP2
50319;SDS011;36226;53.464;9.852;2022-10-16T00:01:19;8.85;;;4.07;;
50319;SDS011;36226;53.464;9.852;2022-10-16T00:03:46;5.05;;;3.70;;
50319;SDS011;36226;53.464;9.852;2022-10-16T00:06:12;8.90;;;3.63;;
50319;SDS011;36226;53.464;9.852;2022-10-16T00:08:40;8.00;;;3.80;;
50319;SDS011;36226;53.464;9.852;2022-10-16T00:11:07;7.88;;;3.38;;
50319;SDS011;36226;53.464;9.852;2022-10-16T00:13:34;3.72;;;2.75;;
50319;SDS011;36226;53.464;9.852;2022-10-16T00:16:01;6.15;;;3.05;;
50319;SDS011;36226;53.464;9.852;2022-10-16T00:18:27;5.32;;;2.83;;
50319;SDS011;36226;53.464;9.852;2022-10-16T00:20:52;4.97;;;2.75;;
50319;SDS011;36226;53.464;9.852;2022-10-16T00:23:18;5.05;;;2.60;;
50319;SDS011;36226;53.464;9.852;2022-10-16T00:25:44;7.65;;;2.92;;
50319;SDS011;36226;53.464;9.852;2022-10-16T00:28:10;6.30;;;2.50;;
50319;SDS011;36226;53.464;9.852;2022-10-16T00:30:38;6.47;;;2.53;;
50319;SDS011;36226;53.464;9.852;2022-10-16T00:33:04;4.07;;;2.15;;
50319;SDS011;36226;53.464;9.852;2022-10-16T00:35:30;7.90;;;2.30;;
50319;SDS011;36226;53.464;9.852;2022-10-16T00:37:55;4.35;;;2.00;;
50319;SDS011;36226;53.464;9.852;2022-10-16T00:40:22;7.90;;;2.50;;
50319;SDS011;36226;53.464;9.852;2022-10-16T00:42:47;2.88;;;1.67;;
50319;SDS011;36226;53.464;9.852;2022-10-16T00:45:12;4.95;;;1.63;;
50319;SDS011;36226;53.464;9.852;2022-10-16T00:47:42;5.25;;;1.90;;
50319;SDS011;36226;53.464;9.852;2022-10-16T00:52:43;3.95;;;1.67;;
50319;SDS011;36226;53.464;9.852;2022-10-16T00:55:10;2.85;;;1.55;;
50319;SDS011;36226;53.464;9.852;2022-10-16T00:57:36;3.70;;;1.70;;
50319;SDS011;36226;53.464;9.852;2022-10-16T01:00:04;5.28;;;1.70;;
50319;SDS011;36226;53.464;9.852;2022-10-16T01:02:31;2.63;;;1.65;;
50319;SDS011;36226;53.464;9.852;2022-10-16T01:04:56;2.83;;;1.70;;
50319;SDS011;36226;53.464;9.852;2022-10-16T01:22:56;3.15;;;1.40;;
50319;SDS011;36226;53.464;9.852;2022-10-16T01:28:17;4.47;;;1.40;;
50319;SDS011;36226;53.464;9.852;2022-10-16T01:30:44;6.75;;;1.80;;
50319;SDS011;36226;53.464;9.852;2022-10-16T01:33:14;6.68;;;1.98;;
50319;SDS011;36226;53.464;9.852;2022-10-16T01:35:42;3.33;;;1.45;;
50319;SDS011;36226;53.464;9.852;2022-10-16T01:38:19;7.32;;;1.38;;
50319;SDS011;36226;53.464;9.852;2022-10-16T01:40:48;4.38;;;1.38;;
50319;SDS011;36226;53.464;9.852;2022-10-16T01:43:15;3.03;;;1.60;;
50319;SDS011;36226;53.464;9.852;2022-10-16T01:45:44;2.20;;;1.30;;
50319;SDS011;36226;53.464;9.852;2022-10-16T01:48:11;2.65;;;1.30;;
50319;SDS011;36226;53.464;9.852;2022-10-16T01:50:38;3.38;;;1.33;;
50319;SDS011;36226;53.464;9.852;2022-10-16T01:53:08;2.72;;;1.42;;
50319;SDS011;36226;53.464;9.852;2022-10-16T01:55:38;4.57;;;1.33;;
50319;SDS011;36226;53.464;9.852;2022-10-16T01:58:08;3.38;;;1.40;;
50319;SDS011;36226;53.464;9.852;2022-10-16T02:00:36;4.68;;;1.65;;
50319;SDS011;36226;53.464;9.852;2022-10-16T02:03:02;4.40;;;1.17;;
50319;SDS011;36226;53.464;9.852;2022-10-16T02:05:29;1.88;;;1.17;;
50319;SDS011;36226;53.464;9.852;2022-10-16T02:07:57;2.63;;;1.23;;
50319;SDS011;36226;53.464;9.852;2022-10-16T02:10:23;3.80;;;1.35;;
50319;SDS011;36226;53.464;9.852;2022-10-16T02:12:55;2.42;;;1.25;;
50319;SDS011;36226;53.464;9.852;2022-10-16T02:15:23;2.55;;;1.20;;
50319;SDS011;36226;53.464;9.852;2022-10-16T02:17:48;3.70;;;1.25;;
50319;SDS011;36226;53.464;9.852;2022-10-16T02:20:14;2.00;;;1.00;;
50319;SDS011;36226;53.464;9.852;2022-10-16T02:22:40;4.00;;;1.30;;
50319;SDS011;36226;53.464;9.852;2022-10-16T02:25:10;3.22;;;1.50;;
50319;SDS011;36226;53.464;9.852;2022-10-16T02:27:51;4.30;;;2.05;;
50319;SDS011;36226;53.464;9.852;2022-10-16T02:30:20;2.60;;;1.10;;
50319;SDS011;36226;53.464;9.852;2022-10-16T02:32:48;2.00;;;1.00;;
50319;SDS011;36226;53.464;9.852;2022-10-16T02:35:18;3.38;;;1.30;;
50319;SDS011;36226;53.464;9.852;2022-10-16T02:37:44;4.70;;;1.10;;
50319;SDS011;36226;53.464;9.852;2022-10-16T02:40:10;4.53;;;1.17;;
50319;SDS011;36226;53.464;9.852;2022-10-16T02:42:37;1.88;;;1.15;;
50319;SDS011;36226;53.464;9.852;2022-10-16T02:45:04;3.35;;;1.00;;
50319;SDS011;36226;53.464;9.852;2022-10-16T02:47:30;4.93;;;1.33;;
50319;SDS011;36226;53.464;9.852;2022-10-16T02:49:55;4.50;;;1.48;;
50319;SDS011;36226;53.464;9.852;2022-10-16T02:52:20;2.63;;;0.93;;
50319;SDS011;36226;53.464;9.852;2022-10-16T02:54:46;2.47;;;1.05;;
50319;SDS011;36226;53.464;9.852;2022-10-16T02:57:11;4.28;;;1.30;;
50319;SDS011;36226;53.464;9.852;2022-10-16T02:59:36;4.00;;;1.35;;
50319;SDS011;36226;53.464;9.852;2022-10-16T03:02:02;4.47;;;1.30;;
50319;SDS011;36226;53.464;9.852;2022-10-16T03:04:28;3.83;;;1.05;;
50319;SDS011;36226;53.464;9.852;2022-10-16T03:06:53;5.50;;;1.40;;
50319;SDS011;36226;53.464;9.852;2022-10-16T03:09:18;3.15;;;1.00;;
50319;SDS011;36226;53.464;9.852;2022-10-16T03:11:43;5.35;;;1.27;;
50319;SDS011;36226;53.464;9.852;2022-10-16T03:14:09;2.55;;;1.48;;
50319;SDS011;36226;53.464;9.852;2022-10-16T03:16:34;2.75;;;1.20;;
50319;SDS011;36226;53.464;9.852;2022-10-16T03:19:00;3.10;;;1.15;;
50319;SDS011;36226;53.464;9.852;2022-10-16T03:21:26;2.15;;;1.13;;
50319;SDS011;36226;53.464;9.852;2022-10-16T03:23:51;3.67;;;1.40;;
50319;SDS011;36226;53.464;9.852;2022-10-16T03:26:16;2.95;;;1.67;;
50319;SDS011;36226;53.464;9.852;2022-10-16T03:28:42;4.78;;;1.35;;
50319;SDS011;36226;53.464;9.852;2022-10-16T03:31:07;2.85;;;1.20;;
50319;SDS011;36226;53.464;9.852;2022-10-16T03:33:33;2.25;;;1.10;;
50319;SDS011;36226;53.464;9.852;2022-10-16T03:35:58;3.95;;;1.20;;
50319;SDS011;36226;53.464;9.852;2022-10-16T03:38:23;2.38;;;1.08;;
50319;SDS011;36226;53.464;9.852;2022-10-16T03:40:49;7.30;;;1.52;;
50319;SDS011;36226;53.464;9.852;2022-10-16T03:43:14;2.20;;;1.10;;
50319;SDS011;36226;53.464;9.852;2022-10-16T03:45:40;1.48;;;0.88;;
50319;SDS011;36226;53.464;9.852;2022-10-16T03:48:05;5.47;;;1.30;;
50319;SDS011;36226;53.464;9.852;2022-10-16T03:50:30;3.10;;;1.00;;
50319;SDS011;36226;53.464;9.852;2022-10-16T03:52:56;5.70;;;1.08;;
50319;SDS011;36226;53.464;9.852;2022-10-16T03:55:21;4.07;;;1.10;;
50319;SDS011;36226;53.464;9.852;2022-10-16T03:57:46;5.38;;;1.40;;
50319;SDS011;36226;53.464;9.852;2022-10-16T04:00:12;3.10;;;1.20;;
50319;SDS011;36226;53.464;9.852;2022-10-16T04:02:37;3.97;;;1.90;;
50319;SDS011;36226;53.464;9.852;2022-10-16T04:05:03;1.90;;;1.23;;
50319;SDS011;36226;53.464;9.852;2022-10-16T04:07:31;6.03;;;1.40;;
50319;SDS011;36226;53.464;9.852;2022-10-16T04:09:57;4.57;;;1.20;;
50319;SDS011;36226;53.464;9.852;2022-10-16T04:12:24;4.15;;;1.10;;
50319;SDS011;36226;53.464;9.852;2022-10-16T04:14:52;6.95;;;1.38;;
50319;SDS011;36226;53.464;9.852;2022-10-16T04:17:18;2.83;;;1.17;;
50319;SDS011;36226;53.464;9.852;2022-10-16T04:19:43;2.42;;;1.40;;
50319;SDS011;36226;53.464;9.852;2022-10-16T04:22:08;3.67;;;1.23;;
50319;SDS011;36226;53.464;9.852;2022-10-16T04:24:34;3.25;;;1.27;;
50319;SDS011;36226;53.464;9.852;2022-10-16T04:26:59;5.43;;;1.67;;
50319;SDS011;36226;53.464;9.852;2022-10-16T04:29:24;4.57;;;1.35;;
50319;SDS011;36226;53.464;9.852;2022-10-16T04:31:50;3.65;;;1.38;;
50319;SDS011;36226;53.464;9.852;2022-10-16T04:34:15;3.53;;;1.50;;
50319;SDS011;36226;53.464;9.852;2022-10-16T04:36:40;3.55;;;1.50;;
50319;SDS011;36226;53.464;9.852;2022-10-16T04:39:06;6.70;;;1.67;;
50319;SDS011;36226;53.464;9.852;2022-10-16T04:41:31;3.00;;;1.50;;
50319;SDS011;36226;53.464;9.852;2022-10-16T04:43:57;4.25;;;2.00;;
50319;SDS011;36226;53.464;9.852;2022-10-16T04:46:22;6.22;;;1.75;;
50319;SDS011;36226;53.464;9.852;2022-10-16T04:48:47;6.63;;;1.92;;
50319;SDS011;36226;53.464;9.852;2022-10-16T04:51:13;6.43;;;2.05;;
50319;SDS011;36226;53.464;9.852;2022-10-16T04:53:38;6.10;;;2.08;;
50319;SDS011;36226;53.464;9.852;2022-10-16T04:56:04;4.63;;;2.08;;
50319;SDS011;36226;53.464;9.852;2022-10-16T04:58:29;5.47;;;2.00;;
50319;SDS011;36226;53.464;9.852;2022-10-16T05:00:54;5.97;;;2.05;;
50319;SDS011;36226;53.464;9.852;2022-10-16T05:03:20;6.30;;;2.35;;
50319;SDS011;36226;53.464;9.852;2022-10-16T05:05:45;4.95;;;2.08;;
50319;SDS011;36226;53.464;9.852;2022-10-16T05:08:11;4.93;;;1.98;;
50319;SDS011;36226;53.464;9.852;2022-10-16T05:10:38;4.20;;;2.40;;
50319;SDS011;36226;53.464;9.852;2022-10-16T05:13:03;4.22;;;1.77;;
50319;SDS011;36226;53.464;9.852;2022-10-16T05:15:28;5.38;;;1.90;;
50319;SDS011;36226;53.464;9.852;2022-10-16T05:17:54;6.63;;;1.95;;
50319;SDS011;36226;53.464;9.852;2022-10-16T05:20:20;4.90;;;1.75;;
50319;SDS011;36226;53.464;9.852;2022-10-16T05:22:46;7.85;;;2.00;;
50319;SDS011;36226;53.464;9.852;2022-10-16T05:25:12;5.40;;;1.77;;
50319;SDS011;36226;53.464;9.852;2022-10-16T05:27:37;5.68;;;1.92;;
50319;SDS011;36226;53.464;9.852;2022-10-16T05:30:03;5.40;;;1.52;;
50319;SDS011;36226;53.464;9.852;2022-10-16T05:32:29;3.70;;;1.88;;
50319;SDS011;36226;53.464;9.852;2022-10-16T05:34:54;3.80;;;1.30;;
50319;SDS011;36226;53.464;9.852;2022-10-16T05:37:19;3.55;;;1.63;;
50319;SDS011;36226;53.464;9.852;2022-10-16T05:39:48;3.97;;;1.90;;
50319;SDS011;36226;53.464;9.852;2022-10-16T05:42:13;5.32;;;1.60;;
50319;SDS011;36226;53.464;9.852;2022-10-16T05:44:39;4.95;;;1.50;;
50319;SDS011;36226;53.464;9.852;2022-10-16T05:47:05;2.72;;;1.52;;
50319;SDS011;36226;53.464;9.852;2022-10-16T05:49:30;3.80;;;1.50;;
50319;SDS011;36226;53.464;9.852;2022-10-16T05:51:55;3.45;;;1.50;;
50319;SDS011;36226;53.464;9.852;2022-10-16T05:54:21;5.47;;;1.55;;
50319;SDS011;36226;53.464;9.852;2022-10-16T05:56:46;4.88;;;2.00;;
50319;SDS011;36226;53.464;9.852;2022-10-16T05:59:14;3.05;;;1.73;;
50319;SDS011;36226;53.464;9.852;2022-10-16T06:01:39;3.90;;;1.67;;
50319;SDS011;36226;53.464;9.852;2022-10-16T06:04:05;6.88;;;1.88;;
50319;SDS011;36226;53.464;9.852;2022-10-16T06:06:30;7.40;;;1.77;;
50319;SDS011;36226;53.464;9.852;2022-10-16T06:08:56;5.95;;;2.00;;
50319;SDS011;36226;53.464;9.852;2022-10-16T06:11:22;4.63;;;1.83;;
50319;SDS011;36226;53.464;9.852;2022-10-16T06:13:50;7.63;;;1.95;;
50319;SDS011;36226;53.464;9.852;2022-10-16T06:16:16;4.97;;;2.10;;
50319;SDS011;36226;53.464;9.852;2022-10-16T06:18:41;3.72;;;1.65;;
50319;SDS011;36226;53.464;9.852;2022-10-16T06:21:08;5.82;;;2.20;;
50319;SDS011;36226;53.464;9.852;2022-10-16T06:23:35;4.72;;;1.98;;
50319;SDS011;36226;53.464;9.852;2022-10-16T06:26:07;4.93;;;2.40;;
50319;SDS011;36226;53.464;9.852;2022-10-16T06:28:34;7.90;;;2.50;;
50319;SDS011;36226;53.464;9.852;2022-10-16T06:30:59;5.82;;;2.40;;
50319;SDS011;36226;53.464;9.852;2022-10-16T06:33:25;6.25;;;2.58;;
50319;SDS011;36226;53.464;9.852;2022-10-16T06:35:51;8.02;;;2.80;;
50319;SDS011;36226;53.464;9.852;2022-10-16T06:38:16;6.20;;;2.53;;
50319;SDS011;36226;53.464;9.852;2022-10-16T06:40:41;5.30;;;2.38;;
50319;SDS011;36226;53.464;9.852;2022-10-16T06:43:06;5.68;;;2.60;;
50319;SDS011;36226;53.464;9.852;2022-10-16T06:45:32;6.20;;;2.60;;
50319;SDS011;36226;53.464;9.852;2022-10-16T06:47:57;5.93;;;2.45;;
50319;SDS011;36226;53.464;9.852;2022-10-16T06:50:22;6.03;;;2.70;;
50319;SDS011;36226;53.464;9.852;2022-10-16T06:52:48;6.75;;;3.47;;
50319;SDS011;36226;53.464;9.852;2022-10-16T06:55:14;7.20;;;3.13;;
50319;SDS011;36226;53.464;9.852;2022-10-16T06:57:40;5.82;;;2.38;;
50319;SDS011;36226;53.464;9.852;2022-10-16T07:00:05;8.63;;;2.90;;
50319;SDS011;36226;53.464;9.852;2022-10-16T07:02:31;4.60;;;2.55;;
50319;SDS011;36226;53.464;9.852;2022-10-16T07:04:56;5.65;;;2.80;;
50319;SDS011;36226;53.464;9.852;2022-10-16T07:07:22;5.75;;;2.67;;
50319;SDS011;36226;53.464;9.852;2022-10-16T07:09:49;5.43;;;2.58;;
50319;SDS011;36226;53.464;9.852;2022-10-16T07:12:15;5.55;;;2.72;;
50319;SDS011;36226;53.464;9.852;2022-10-16T07:14:40;5.78;;;2.70;;
50319;SDS011;36226;53.464;9.852;2022-10-16T07:17:05;5.57;;;2.47;;
50319;SDS011;36226;53.464;9.852;2022-10-16T07:19:31;4.03;;;2.42;;
50319;SDS011;36226;53.464;9.852;2022-10-16T07:21:56;5.97;;;2.38;;
50319;SDS011;36226;53.464;9.852;2022-10-16T07:24:22;5.28;;;2.80;;
50319;SDS011;36226;53.464;9.852;2022-10-16T07:26:47;4.60;;;2.55;;
50319;SDS011;36226;53.464;9.852;2022-10-16T07:29:17;6.18;;;2.17;;
50319;SDS011;36226;53.464;9.852;2022-10-16T07:31:44;6.55;;;2.60;;
50319;SDS011;36226;53.464;9.852;2022-10-16T07:34:10;5.88;;;2.67;;
50319;SDS011;36226;53.464;9.852;2022-10-16T07:36:36;5.28;;;2.58;;
50319;SDS011;36226;53.464;9.852;2022-10-16T07:39:01;5.57;;;2.60;;
50319;SDS011;36226;53.464;9.852;2022-10-16T07:41:27;3.33;;;2.20;;
50319;SDS011;36226;53.464;9.852;2022-10-16T07:43:53;4.00;;;2.35;;
50319;SDS011;36226;53.464;9.852;2022-10-16T07:46:20;3.45;;;2.17;;
50319;SDS011;36226;53.464;9.852;2022-10-16T07:48:46;4.10;;;2.20;;
50319;SDS011;36226;53.464;9.852;2022-10-16T07:51:14;4.40;;;2.30;;
50319;SDS011;36226;53.464;9.852;2022-10-16T07:53:40;4.32;;;2.60;;
50319;SDS011;36226;53.464;9.852;2022-10-16T07:56:06;4.68;;;2.35;;
50319;SDS011;36226;53.464;9.852;2022-10-16T07:58:32;5.47;;;2.50;;
50319;SDS011;36226;53.464;9.852;2022-10-16T08:00:58;4.97;;;2.30;;
50319;SDS011;36226;53.464;9.852;2022-10-16T08:03:24;6.20;;;2.00;;
50319;SDS011;36226;53.464;9.852;2022-10-16T08:05:50;6.90;;;2.25;;
50319;SDS011;36226;53.464;9.852;2022-10-16T08:08:16;6.47;;;2.45;;
50319;SDS011;36226;53.464;9.852;2022-10-16T08:10:44;3.28;;;2.05;;
50319;SDS011;36226;53.464;9.852;2022-10-16T08:13:10;4.20;;;2.00;;
50319;SDS011;36226;53.464;9.852;2022-10-16T08:15:35;4.85;;;2.42;;
50319;SDS011;36226;53.464;9.852;2022-10-16T08:18:01;4.13;;;2.22;;
50319;SDS011;36226;53.464;9.852;2022-10-16T08:20:29;8.82;;;2.55;;
50319;SDS011;36226;53.464;9.852;2022-10-16T08:22:55;3.80;;;2.30;;
50319;SDS011;36226;53.464;9.852;2022-10-16T08:25:21;3.28;;;2.17;;
50319;SDS011;36226;53.464;9.852;2022-10-16T08:27:47;3.65;;;2.40;;
50319;SDS011;36226;53.464;9.852;2022-10-16T08:30:12;3.75;;;1.98;;
50319;SDS011;36226;53.464;9.852;2022-10-16T08:32:38;3.63;;;2.00;;
50319;SDS011;36226;53.464;9.852;2022-10-16T08:35:03;3.90;;;1.67;;
50319;SDS011;36226;53.464;9.852;2022-10-16T08:37:32;4.55;;;2.03;;
50319;SDS011;36226;53.464;9.852;2022-10-16T08:39:58;3.97;;;2.10;;
50319;SDS011;36226;53.464;9.852;2022-10-16T08:45:22;2.25;;;1.70;;
50319;SDS011;36226;53.464;9.852;2022-10-16T08:50:35;4.68;;;1.90;;
50319;SDS011;36226;53.464;9.852;2022-10-16T08:53:03;4.38;;;1.80;;
50319;SDS011;36226;53.464;9.852;2022-10-16T08:58:15;8.75;;;2.00;;
50319;SDS011;36226;53.464;9.852;2022-10-16T09:00:43;3.78;;;1.75;;
50319;SDS011;36226;53.464;9.852;2022-10-16T09:06:17;3.92;;;1.52;;
50319;SDS011;36226;53.464;9.852;2022-10-16T09:17:00;2.90;;;1.40;;
50319;SDS011;36226;53.464;9.852;2022-10-16T09:19:31;3.17;;;1.13;;
50319;SDS011;36226;53.464;9.852;2022-10-16T09:22:04;3.88;;;1.48;;
50319;SDS011;36226;53.464;9.852;2022-10-16T09:24:35;5.97;;;1.17;;
50319;SDS011;36226;53.464;9.852;2022-10-16T09:27:01;5.78;;;1.30;;
50319;SDS011;36226;53.464;9.852;2022-10-16T09:29:26;1.90;;;1.10;;
50319;SDS011;36226;53.464;9.852;2022-10-16T09:31:52;3.25;;;1.00;;
50319;SDS011;36226;53.464;9.852;2022-10-16T09:34:32;3.92;;;1.20;;
50319;SDS011;36226;53.464;9.852;2022-10-16T09:37:00;2.35;;;1.10;;
50319;SDS011;36226;53.464;9.852;2022-10-16T09:39:28;2.85;;;1.17;;
50319;SDS011;36226;53.464;9.852;2022-10-16T09:41:53;3.08;;;1.27;;
50319;SDS011;36226;53.464;9.852;2022-10-16T09:44:29;4.95;;;1.27;;
50319;SDS011;36226;53.464;9.852;2022-10-16T09:47:05;4.40;;;1.30;;
50319;SDS011;36226;53.464;9.852;2022-10-16T09:49:38;4.43;;;1.20;;
50319;SDS011;36226;53.464;9.852;2022-10-16T09:52:13;6.15;;;1.10;;
50319;SDS011;36226;53.464;9.852;2022-10-16T09:54:53;4.57;;;1.30;;
50319;SDS011;36226;53.464;9.852;2022-10-16T09:57:19;3.05;;;1.05;;
50319;SDS011;36226;53.464;9.852;2022-10-16T09:59:49;3.03;;;1.20;;
50319;SDS011;36226;53.464;9.852;2022-10-16T10:02:29;4.50;;;1.20;;
50319;SDS011;36226;53.464;9.852;2022-10-16T10:04:55;4.10;;;0.98;;
50319;SDS011;36226;53.464;9.852;2022-10-16T10:07:26;3.13;;;1.00;;
50319;SDS011;36226;53.464;9.852;2022-10-16T10:09:53;2.72;;;1.13;;
50319;SDS011;36226;53.464;9.852;2022-10-16T10:12:24;2.67;;;1.10;;
50319;SDS011;36226;53.464;9.852;2022-10-16T10:14:54;3.10;;;0.98;;
50319;SDS011;36226;53.464;9.852;2022-10-16T10:17:22;1.75;;;0.88;;
50319;SDS011;36226;53.464;9.852;2022-10-16T10:19:50;2.33;;;0.93;;
50319;SDS011;36226;53.464;9.852;2022-10-16T10:46:38;3.30;;;0.80;;
50319;SDS011;36226;53.464;9.852;2022-10-16T11:01:01;4.50;;;0.93;;
50319;SDS011;36226;53.464;9.852;2022-10-16T11:06:23;2.90;;;0.75;;
50319;SDS011;36226;53.464;9.852;2022-10-16T11:11:42;5.82;;;0.95;;
50319;SDS011;36226;53.464;9.852;2022-10-16T11:16:53;5.88;;;0.90;;
50319;SDS011;36226;53.464;9.852;2022-10-16T11:19:28;2.28;;;0.60;;
50319;SDS011;36226;53.464;9.852;2022-10-16T11:30:14;4.35;;;0.70;;
50319;SDS011;36226;53.464;9.852;2022-10-16T11:35:25;7.40;;;0.90;;
50319;SDS011;36226;53.464;9.852;2022-10-16T11:37:59;4.32;;;0.77;;
50319;SDS011;36226;53.464;9.852;2022-10-16T11:40:28;2.35;;;0.60;;
50319;SDS011;36226;53.464;9.852;2022-10-16T11:43:02;1.40;;;0.60;;
50319;SDS011;36226;53.464;9.852;2022-10-16T11:46:07;1.98;;;0.55;;
50319;SDS011;36226;53.464;9.852;2022-10-16T11:48:28;3.00;;;0.70;;
50319;SDS011;36226;53.464;9.852;2022-10-16T11:50:57;3.83;;;0.50;;
50319;SDS011;36226;53.464;9.852;2022-10-16T11:53:51;3.90;;;0.52;;
50319;SDS011;36226;53.464;9.852;2022-10-16T11:56:21;4.32;;;0.77;;
50319;SDS011;36226;53.464;9.852;2022-10-16T11:58:54;3.78;;;0.80;;
50319;SDS011;36226;53.464;9.852;2022-10-16T12:01:31;2.22;;;0.52;;
50319;SDS011;36226;53.464;9.852;2022-10-16T12:04:21;2.17;;;0.68;;
50319;SDS011;36226;53.464;9.852;2022-10-16T12:06:57;3.10;;;0.60;;
50319;SDS011;36226;53.464;9.852;2022-10-16T12:09:28;6.85;;;0.70;;
50319;SDS011;36226;53.464;9.852;2022-10-16T12:11:54;5.13;;;0.88;;
50319;SDS011;36226;53.464;9.852;2022-10-16T12:14:21;2.50;;;0.57;;
50319;SDS011;36226;53.464;9.852;2022-10-16T12:16:54;3.20;;;0.57;;
50319;SDS011;36226;53.464;9.852;2022-10-16T12:25:21;4.18;;;0.65;;
50319;SDS011;36226;53.464;9.852;2022-10-16T12:27:53;6.38;;;1.27;;
50319;SDS011;36226;53.464;9.852;2022-10-16T12:30:21;7.03;;;0.68;;
50319;SDS011;36226;53.464;9.852;2022-10-16T12:32:52;2.75;;;0.63;;
50319;SDS011;36226;53.464;9.852;2022-10-16T12:35:29;3.60;;;0.60;;
50319;SDS011;36226;53.464;9.852;2022-10-16T12:38:06;4.95;;;0.77;;
50319;SDS011;36226;53.464;9.852;2022-10-16T12:40:34;3.60;;;0.60;;
50319;SDS011;36226;53.464;9.852;2022-10-16T12:43:13;3.45;;;0.70;;
50319;SDS011;36226;53.464;9.852;2022-10-16T12:45:58;1.77;;;0.50;;
50319;SDS011;36226;53.464;9.852;2022-10-16T12:48:28;3.97;;;0.63;;
50319;SDS011;36226;53.464;9.852;2022-10-16T12:50:53;2.95;;;0.70;;
50319;SDS011;36226;53.464;9.852;2022-10-16T12:53:20;4.05;;;0.75;;
50319;SDS011;36226;53.464;9.852;2022-10-16T12:56:31;2.47;;;0.70;;
50319;SDS011;36226;53.464;9.852;2022-10-16T13:02:06;6.15;;;0.90;;
50319;SDS011;36226;53.464;9.852;2022-10-16T13:04:15;4.85;;;1.00;;
50319;SDS011;36226;53.464;9.852;2022-10-16T13:12:02;6.13;;;1.30;;
50319;SDS011;36226;53.464;9.852;2022-10-16T13:17:19;4.50;;;0.93;;
50319;SDS011;36226;53.464;9.852;2022-10-16T13:20:15;3.45;;;1.13;;
50319;SDS011;36226;53.464;9.852;2022-10-16T13:23:06;2.22;;;1.10;;
50319;SDS011;36226;53.464;9.852;2022-10-16T13:28:17;1.88;;;0.73;;
50319;SDS011;36226;53.464;9.852;2022-10-16T13:30:53;3.63;;;0.88;;
50319;SDS011;36226;53.464;9.852;2022-10-16T13:33:38;3.88;;;0.80;;
50319;SDS011;36226;53.464;9.852;2022-10-16T13:36:05;6.97;;;2.10;;
50319;SDS011;36226;53.464;9.852;2022-10-16T13:38:34;3.35;;;0.90;;
50319;SDS011;36226;53.464;9.852;2022-10-16T13:41:12;1.75;;;0.60;;
50319;SDS011;36226;53.464;9.852;2022-10-16T13:43:44;3.70;;;0.98;;
50319;SDS011;36226;53.464;9.852;2022-10-16T13:46:18;2.20;;;0.50;;
50319;SDS011;36226;53.464;9.852;2022-10-16T13:48:55;1.88;;;0.60;;
50319;SDS011;36226;53.464;9.852;2022-10-16T13:51:22;4.57;;;0.90;;
50319;SDS011;36226;53.464;9.852;2022-10-16T13:53:47;2.20;;;0.57;;
50319;SDS011;36226;53.464;9.852;2022-10-16T13:56:14;2.97;;;0.70;;
50319;SDS011;36226;53.464;9.852;2022-10-16T13:58:41;4.20;;;0.70;;
50319;SDS011;36226;53.464;9.852;2022-10-16T14:01:40;3.63;;;0.70;;
50319;SDS011;36226;53.464;9.852;2022-10-16T14:04:04;7.45;;;0.70;;
50319;SDS011;36226;53.464;9.852;2022-10-16T14:06:30;2.60;;;0.70;;
50319;SDS011;36226;53.464;9.852;2022-10-16T14:11:55;6.15;;;0.85;;
50319;SDS011;36226;53.464;9.852;2022-10-16T14:14:26;3.75;;;0.80;;
50319;SDS011;36226;53.464;9.852;2022-10-16T14:16:54;3.90;;;0.70;;
50319;SDS011;36226;53.464;9.852;2022-10-16T14:19:21;3.85;;;0.55;;
50319;SDS011;36226;53.464;9.852;2022-10-16T14:21:48;5.20;;;0.90;;
50319;SDS011;36226;53.464;9.852;2022-10-16T14:24:31;4.90;;;0.70;;
50319;SDS011;36226;53.464;9.852;2022-10-16T14:26:58;4.55;;;0.85;;
50319;SDS011;36226;53.464;9.852;2022-10-16T14:29:24;2.80;;;0.80;;
50319;SDS011;36226;53.464;9.852;2022-10-16T14:31:57;3.22;;;0.70;;
50319;SDS011;36226;53.464;9.852;2022-10-16T14:34:28;3.25;;;0.70;;
50319;SDS011;36226;53.464;9.852;2022-10-16T14:36:58;2.92;;;0.50;;
50319;SDS011;36226;53.464;9.852;2022-10-16T14:39:27;4.80;;;0.90;;
50319;SDS011;36226;53.464;9.852;2022-10-16T14:41:54;3.58;;;0.80;;
50319;SDS011;36226;53.464;9.852;2022-10-16T14:44:21;4.43;;;0.77;;
50319;SDS011;36226;53.464;9.852;2022-10-16T14:47:06;5.50;;;0.80;;
50319;SDS011;36226;53.464;9.852;2022-10-16T14:49:33;5.10;;;0.82;;
50319;SDS011;36226;53.464;9.852;2022-10-16T14:52:01;3.67;;;0.73;;
50319;SDS011;36226;53.464;9.852;2022-10-16T14:54:26;3.55;;;0.90;;
50319;SDS011;36226;53.464;9.852;2022-10-16T14:56:56;3.40;;;0.80;;
50319;SDS011;36226;53.464;9.852;2022-10-16T14:59:27;3.50;;;0.85;;
50319;SDS011;36226;53.464;9.852;2022-10-16T15:01:56;7.63;;;0.80;;
50319;SDS011;36226;53.464;9.852;2022-10-16T15:04:21;6.65;;;1.20;;
50319;SDS011;36226;53.464;9.852;2022-10-16T15:06:47;4.22;;;0.80;;
50319;SDS011;36226;53.464;9.852;2022-10-16T15:09:12;4.43;;;0.65;;
50319;SDS011;36226;53.464;9.852;2022-10-16T15:11:38;3.67;;;0.70;;
50319;SDS011;36226;53.464;9.852;2022-10-16T15:14:03;6.50;;;1.20;;
50319;SDS011;36226;53.464;9.852;2022-10-16T15:16:29;2.88;;;0.70;;
50319;SDS011;36226;53.464;9.852;2022-10-16T15:18:55;6.70;;;0.90;;
50319;SDS011;36226;53.464;9.852;2022-10-16T15:21:25;3.17;;;0.80;;
50319;SDS011;36226;53.464;9.852;2022-10-16T15:23:55;6.38;;;0.90;;
50319;SDS011;36226;53.464;9.852;2022-10-16T15:26:21;5.70;;;1.00;;
50319;SDS011;36226;53.464;9.852;2022-10-16T15:28:48;5.82;;;0.98;;
50319;SDS011;36226;53.464;9.852;2022-10-16T15:31:13;4.85;;;1.10;;
50319;SDS011;36226;53.464;9.852;2022-10-16T15:33:38;3.85;;;0.75;;
50319;SDS011;36226;53.464;9.852;2022-10-16T15:36:04;4.50;;;0.63;;
50319;SDS011;36226;53.464;9.852;2022-10-16T15:38:29;5.07;;;1.05;;
50319;SDS011;36226;53.464;9.852;2022-10-16T15:40:55;4.20;;;1.05;;
50319;SDS011;36226;53.464;9.852;2022-10-16T15:43:20;7.38;;;1.08;;
50319;SDS011;36226;53.464;9.852;2022-10-16T15:45:52;4.85;;;0.90;;
50319;SDS011;36226;53.464;9.852;2022-10-16T15:48:27;2.25;;;0.80;;
50319;SDS011;36226;53.464;9.852;2022-10-16T15:50:53;5.38;;;0.95;;
50319;SDS011;36226;53.464;9.852;2022-10-16T15:53:18;7.63;;;0.93;;
50319;SDS011;36226;53.464;9.852;2022-10-16T15:55:44;4.85;;;0.90;;
50319;SDS011;36226;53.464;9.852;2022-10-16T15:58:09;4.22;;;0.90;;
50319;SDS011;36226;53.464;9.852;2022-10-16T16:00:34;4.47;;;0.77;;
50319;SDS011;36226;53.464;9.852;2022-10-16T16:03:00;5.80;;;0.93;;
50319;SDS011;36226;53.464;9.852;2022-10-16T16:05:25;4.93;;;0.90;;
50319;SDS011;36226;53.464;9.852;2022-10-16T16:07:52;4.35;;;0.85;;
50319;SDS011;36226;53.464;9.852;2022-10-16T16:10:18;4.25;;;1.17;;
50319;SDS011;36226;53.464;9.852;2022-10-16T16:12:45;5.07;;;0.77;;
50319;SDS011;36226;53.464;9.852;2022-10-16T16:15:14;3.05;;;0.80;;
50319;SDS011;36226;53.464;9.852;2022-10-16T16:17:39;4.00;;;0.82;;
50319;SDS011;36226;53.464;9.852;2022-10-16T16:20:05;3.65;;;1.08;;
50319;SDS011;36226;53.464;9.852;2022-10-16T16:22:31;8.05;;;1.25;;
50319;SDS011;36226;53.464;9.852;2022-10-16T16:24:56;5.65;;;1.25;;
50319;SDS011;36226;53.464;9.852;2022-10-16T16:27:21;4.28;;;0.93;;
50319;SDS011;36226;53.464;9.852;2022-10-16T16:29:49;4.55;;;1.17;;
50319;SDS011;36226;53.464;9.852;2022-10-16T16:32:14;4.82;;;1.10;;
50319;SDS011;36226;53.464;9.852;2022-10-16T16:34:40;4.88;;;0.98;;
50319;SDS011;36226;53.464;9.852;2022-10-16T16:37:05;6.43;;;1.00;;
50319;SDS011;36226;53.464;9.852;2022-10-16T16:39:31;5.03;;;1.02;;
50319;SDS011;36226;53.464;9.852;2022-10-16T16:41:56;3.55;;;1.30;;
50319;SDS011;36226;53.464;9.852;2022-10-16T16:44:23;4.78;;;1.30;;
50319;SDS011;36226;53.464;9.852;2022-10-16T16:46:49;4.70;;;1.60;;
50319;SDS011;36226;53.464;9.852;2022-10-16T16:49:14;8.35;;;1.42;;
50319;SDS011;36226;53.464;9.852;2022-10-16T16:51:40;10.02;;;1.85;;